sensor_id;sensor_type;location;lat;lon;timestamp;P1;durP1;ratioP1;P2;durP2;ratioP2
49378;SDS011;35254;47.990;-1.608;2023-07-02T00:01:45;18.00;;;12.02;;
49378;SDS011;35254;47.990;-1.608;2023-07-02T00:04:12;15.45;;;10.63;;
49378;SDS011;35254;47.990;-1.608;2023-07-02T00:06:41;16.55;;;10.93;;
49378;SDS011;35254;47.990;-1.608;2023-07-02T00:09:10;17.80;;;10.95;;
49378;SDS011;35254;47.990;-1.608;2023-07-02T00:11:37;15.65;;;10.80;;
49378;SDS011;35254;47.990;-1.608;2023-07-02T00:14:04;21.23;;;11.98;;
49378;SDS011;35254;47.990;-1.608;2023-07-02T00:16:30;17.15;;;11.60;;
49378;SDS011;35254;47.990;-1.608;2023-07-02T00:18:56;14.48;;;9.73;;
49378;SDS011;35254;47.990;-1.608;2023-07-02T00:21:22;19.92;;;10.90;;
49378;SDS011;35254;47.990;-1.608;2023-07-02T00:23:50;20.77;;;10.52;;
49378;SDS011;35254;47.990;-1.608;2023-07-02T00:26:16;17.95;;;11.63;;
49378;SDS011;35254;47.990;-1.608;2023-07-02T00:28:42;14.90;;;9.95;;
49378;SDS011;35254;47.990;-1.608;2023-07-02T00:31:07;16.95;;;10.30;;
49378;SDS011;35254;47.990;-1.608;2023-07-02T00:33:33;18.70;;;11.18;;
49378;SDS011;35254;47.990;-1.608;2023-07-02T00:35:59;14.75;;;10.40;;
49378;SDS011;35254;47.990;-1.608;2023-07-02T00:38:25;14.90;;;10.07;;
49378;SDS011;35254;47.990;-1.608;2023-07-02T00:40:51;16.88;;;10.82;;
49378;SDS011;35254;47.990;-1.608;2023-07-02T00:43:17;15.18;;;10.68;;
49378;SDS011;35254;47.990;-1.608;2023-07-02T00:45:42;16.35;;;10.20;;
49378;SDS011;35254;47.990;-1.608;2023-07-02T00:48:10;18.75;;;10.73;;
49378;SDS011;35254;47.990;-1.608;2023-07-02T00:50:36;17.08;;;9.23;;
49378;SDS011;35254;47.990;-1.608;2023-07-02T00:53:02;14.55;;;9.80;;
49378;SDS011;35254;47.990;-1.608;2023-07-02T00:55:28;17.02;;;10.57;;
49378;SDS011;35254;47.990;-1.608;2023-07-02T00:57:53;13.35;;;9.10;;
49378;SDS011;35254;47.990;-1.608;2023-07-02T01:00:21;21.15;;;10.60;;
49378;SDS011;35254;47.990;-1.608;2023-07-02T01:02:56;13.57;;;9.30;;
49378;SDS011;35254;47.990;-1.608;2023-07-02T01:05:24;17.23;;;9.43;;
49378;SDS011;35254;47.990;-1.608;2023-07-02T01:07:51;16.25;;;9.05;;
49378;SDS011;35254;47.990;-1.608;2023-07-02T01:10:17;12.80;;;9.20;;
49378;SDS011;35254;47.990;-1.608;2023-07-02T01:12:43;17.90;;;10.00;;
49378;SDS011;35254;47.990;-1.608;2023-07-02T01:15:10;13.02;;;9.65;;
49378;SDS011;35254;47.990;-1.608;2023-07-02T01:17:36;14.63;;;9.68;;
49378;SDS011;35254;47.990;-1.608;2023-07-02T01:20:06;13.90;;;9.20;;
49378;SDS011;35254;47.990;-1.608;2023-07-02T01:22:33;13.18;;;9.20;;
49378;SDS011;35254;47.990;-1.608;2023-07-02T01:24:59;16.05;;;9.55;;
49378;SDS011;35254;47.990;-1.608;2023-07-02T01:27:28;14.68;;;9.27;;
49378;SDS011;35254;47.990;-1.608;2023-07-02T01:29:55;13.73;;;9.00;;
49378;SDS011;35254;47.990;-1.608;2023-07-02T01:32:21;13.10;;;8.82;;
49378;SDS011;35254;47.990;-1.608;2023-07-02T01:34:47;15.15;;;9.80;;
49378;SDS011;35254;47.990;-1.608;2023-07-02T01:37:14;14.88;;;9.70;;
49378;SDS011;35254;47.990;-1.608;2023-07-02T01:39:40;15.20;;;9.68;;
49378;SDS011;35254;47.990;-1.608;2023-07-02T01:42:09;14.93;;;9.48;;
49378;SDS011;35254;47.990;-1.608;2023-07-02T01:44:42;13.55;;;8.82;;
49378;SDS011;35254;47.990;-1.608;2023-07-02T01:47:09;20.52;;;9.27;;
49378;SDS011;35254;47.990;-1.608;2023-07-02T01:49:35;12.07;;;8.52;;
49378;SDS011;35254;47.990;-1.608;2023-07-02T01:52:04;12.93;;;9.80;;
49378;SDS011;35254;47.990;-1.608;2023-07-02T01:54:31;17.00;;;8.50;;
49378;SDS011;35254;47.990;-1.608;2023-07-02T01:56:57;11.55;;;8.43;;
49378;SDS011;35254;47.990;-1.608;2023-07-02T01:59:23;14.77;;;9.07;;
49378;SDS011;35254;47.990;-1.608;2023-07-02T02:01:49;13.60;;;10.07;;
49378;SDS011;35254;47.990;-1.608;2023-07-02T02:04:15;13.70;;;9.10;;
49378;SDS011;35254;47.990;-1.608;2023-07-02T02:06:41;15.60;;;8.50;;
49378;SDS011;35254;47.990;-1.608;2023-07-02T02:09:07;19.67;;;9.75;;
49378;SDS011;35254;47.990;-1.608;2023-07-02T02:11:34;14.35;;;9.50;;
49378;SDS011;35254;47.990;-1.608;2023-07-02T02:14:03;14.55;;;9.32;;
49378;SDS011;35254;47.990;-1.608;2023-07-02T02:16:28;12.98;;;8.48;;
49378;SDS011;35254;47.990;-1.608;2023-07-02T02:18:54;12.93;;;8.30;;
49378;SDS011;35254;47.990;-1.608;2023-07-02T02:21:20;11.70;;;7.93;;
49378;SDS011;35254;47.990;-1.608;2023-07-02T02:23:47;13.65;;;9.18;;
49378;SDS011;35254;47.990;-1.608;2023-07-02T02:26:13;14.02;;;9.02;;
49378;SDS011;35254;47.990;-1.608;2023-07-02T02:28:40;15.45;;;8.75;;
49378;SDS011;35254;47.990;-1.608;2023-07-02T02:31:07;14.63;;;8.52;;
49378;SDS011;35254;47.990;-1.608;2023-07-02T02:33:33;13.63;;;9.73;;
49378;SDS011;35254;47.990;-1.608;2023-07-02T02:36:00;17.13;;;9.73;;
49378;SDS011;35254;47.990;-1.608;2023-07-02T02:38:26;11.40;;;8.00;;
49378;SDS011;35254;47.990;-1.608;2023-07-02T02:40:52;11.95;;;8.07;;
49378;SDS011;35254;47.990;-1.608;2023-07-02T02:43:17;12.43;;;8.55;;
49378;SDS011;35254;47.990;-1.608;2023-07-02T02:45:43;13.10;;;8.88;;
49378;SDS011;35254;47.990;-1.608;2023-07-02T02:48:08;13.80;;;8.30;;
49378;SDS011;35254;47.990;-1.608;2023-07-02T02:50:34;13.88;;;8.40;;
49378;SDS011;35254;47.990;-1.608;2023-07-02T02:53:01;14.02;;;8.00;;
49378;SDS011;35254;47.990;-1.608;2023-07-02T02:55:27;16.27;;;9.43;;
49378;SDS011;35254;47.990;-1.608;2023-07-02T02:57:53;12.85;;;9.10;;
49378;SDS011;35254;47.990;-1.608;2023-07-02T03:00:18;12.07;;;8.45;;
49378;SDS011;35254;47.990;-1.608;2023-07-02T03:02:44;14.73;;;8.55;;
49378;SDS011;35254;47.990;-1.608;2023-07-02T03:05:10;16.17;;;9.32;;
49378;SDS011;35254;47.990;-1.608;2023-07-02T03:07:36;13.25;;;8.88;;
49378;SDS011;35254;47.990;-1.608;2023-07-02T03:10:01;14.57;;;8.45;;
49378;SDS011;35254;47.990;-1.608;2023-07-02T03:12:27;18.02;;;8.80;;
49378;SDS011;35254;47.990;-1.608;2023-07-02T03:14:53;15.27;;;9.05;;
49378;SDS011;35254;47.990;-1.608;2023-07-02T03:17:23;12.90;;;8.23;;
49378;SDS011;35254;47.990;-1.608;2023-07-02T03:19:49;12.02;;;8.00;;
49378;SDS011;35254;47.990;-1.608;2023-07-02T03:22:14;12.13;;;7.90;;
49378;SDS011;35254;47.990;-1.608;2023-07-02T03:24:40;16.75;;;8.70;;
49378;SDS011;35254;47.990;-1.608;2023-07-02T03:27:06;12.30;;;8.05;;
49378;SDS011;35254;47.990;-1.608;2023-07-02T03:29:33;15.00;;;8.45;;
49378;SDS011;35254;47.990;-1.608;2023-07-02T03:31:59;10.70;;;7.78;;
49378;SDS011;35254;47.990;-1.608;2023-07-02T03:34:26;13.30;;;9.32;;
49378;SDS011;35254;47.990;-1.608;2023-07-02T03:36:51;16.83;;;9.10;;
49378;SDS011;35254;47.990;-1.608;2023-07-02T03:39:17;15.68;;;8.27;;
49378;SDS011;35254;47.990;-1.608;2023-07-02T03:41:43;15.85;;;8.27;;
49378;SDS011;35254;47.990;-1.608;2023-07-02T03:44:09;14.13;;;8.75;;
49378;SDS011;35254;47.990;-1.608;2023-07-02T03:46:35;12.68;;;7.82;;
49378;SDS011;35254;47.990;-1.608;2023-07-02T03:49:01;10.38;;;7.35;;
49378;SDS011;35254;47.990;-1.608;2023-07-02T03:51:28;13.63;;;8.32;;
49378;SDS011;35254;47.990;-1.608;2023-07-02T03:53:54;12.77;;;9.07;;
49378;SDS011;35254;47.990;-1.608;2023-07-02T03:56:19;13.35;;;7.60;;
49378;SDS011;35254;47.990;-1.608;2023-07-02T03:58:45;11.32;;;8.50;;
49378;SDS011;35254;47.990;-1.608;2023-07-02T04:01:11;12.93;;;7.50;;
49378;SDS011;35254;47.990;-1.608;2023-07-02T04:03:36;14.57;;;7.97;;
49378;SDS011;35254;47.990;-1.608;2023-07-02T04:06:02;12.55;;;8.10;;
49378;SDS011;35254;47.990;-1.608;2023-07-02T04:08:30;12.27;;;8.27;;
49378;SDS011;35254;47.990;-1.608;2023-07-02T04:10:56;21.23;;;8.93;;
49378;SDS011;35254;47.990;-1.608;2023-07-02T04:13:22;15.10;;;9.13;;
49378;SDS011;35254;47.990;-1.608;2023-07-02T04:15:48;10.88;;;7.95;;
49378;SDS011;35254;47.990;-1.608;2023-07-02T04:18:13;12.38;;;7.80;;
49378;SDS011;35254;47.990;-1.608;2023-07-02T04:20:39;13.55;;;8.30;;
49378;SDS011;35254;47.990;-1.608;2023-07-02T04:23:05;12.48;;;8.55;;
49378;SDS011;35254;47.990;-1.608;2023-07-02T04:25:31;12.32;;;8.60;;
49378;SDS011;35254;47.990;-1.608;2023-07-02T04:27:57;14.18;;;9.15;;
49378;SDS011;35254;47.990;-1.608;2023-07-02T04:30:23;14.32;;;8.30;;
49378;SDS011;35254;47.990;-1.608;2023-07-02T04:32:49;12.00;;;7.63;;
49378;SDS011;35254;47.990;-1.608;2023-07-02T04:35:16;12.43;;;8.00;;
49378;SDS011;35254;47.990;-1.608;2023-07-02T04:37:41;13.32;;;7.85;;
49378;SDS011;35254;47.990;-1.608;2023-07-02T04:40:07;12.38;;;8.25;;
49378;SDS011;35254;47.990;-1.608;2023-07-02T04:42:39;11.82;;;8.68;;
49378;SDS011;35254;47.990;-1.608;2023-07-02T04:45:12;12.70;;;8.95;;
49378;SDS011;35254;47.990;-1.608;2023-07-02T04:47:40;15.07;;;9.02;;
49378;SDS011;35254;47.990;-1.608;2023-07-02T04:50:07;11.10;;;8.23;;
49378;SDS011;35254;47.990;-1.608;2023-07-02T04:52:33;15.38;;;9.43;;
49378;SDS011;35254;47.990;-1.608;2023-07-02T04:54:58;13.15;;;8.15;;
49378;SDS011;35254;47.990;-1.608;2023-07-02T04:57:24;14.20;;;9.18;;
49378;SDS011;35254;47.990;-1.608;2023-07-02T04:59:49;15.20;;;9.00;;
49378;SDS011;35254;47.990;-1.608;2023-07-02T05:02:15;14.60;;;9.50;;
49378;SDS011;35254;47.990;-1.608;2023-07-02T05:04:41;15.00;;;8.88;;
49378;SDS011;35254;47.990;-1.608;2023-07-02T05:07:06;14.35;;;9.90;;
49378;SDS011;35254;47.990;-1.608;2023-07-02T05:09:32;16.65;;;9.57;;
49378;SDS011;35254;47.990;-1.608;2023-07-02T05:11:57;16.67;;;9.85;;
49378;SDS011;35254;47.990;-1.608;2023-07-02T05:14:23;19.77;;;9.93;;
49378;SDS011;35254;47.990;-1.608;2023-07-02T05:16:49;17.02;;;10.70;;
49378;SDS011;35254;47.990;-1.608;2023-07-02T05:19:15;18.05;;;10.82;;
49378;SDS011;35254;47.990;-1.608;2023-07-02T05:21:41;16.02;;;10.30;;
49378;SDS011;35254;47.990;-1.608;2023-07-02T05:24:07;18.50;;;10.27;;
49378;SDS011;35254;47.990;-1.608;2023-07-02T05:26:33;17.48;;;10.98;;
49378;SDS011;35254;47.990;-1.608;2023-07-02T05:29:00;17.75;;;10.75;;
49378;SDS011;35254;47.990;-1.608;2023-07-02T05:31:26;16.30;;;10.77;;
49378;SDS011;35254;47.990;-1.608;2023-07-02T05:33:51;15.57;;;10.73;;
49378;SDS011;35254;47.990;-1.608;2023-07-02T05:36:18;14.80;;;10.45;;
49378;SDS011;35254;47.990;-1.608;2023-07-02T05:38:44;17.73;;;11.02;;
49378;SDS011;35254;47.990;-1.608;2023-07-02T05:41:09;18.08;;;10.23;;
49378;SDS011;35254;47.990;-1.608;2023-07-02T05:43:35;19.33;;;11.75;;
49378;SDS011;35254;47.990;-1.608;2023-07-02T05:46:01;20.67;;;11.63;;
49378;SDS011;35254;47.990;-1.608;2023-07-02T05:48:26;16.40;;;10.20;;
49378;SDS011;35254;47.990;-1.608;2023-07-02T05:50:52;17.58;;;11.00;;
49378;SDS011;35254;47.990;-1.608;2023-07-02T05:53:18;15.95;;;10.55;;
49378;SDS011;35254;47.990;-1.608;2023-07-02T05:55:44;20.67;;;11.38;;
49378;SDS011;35254;47.990;-1.608;2023-07-02T05:58:10;18.52;;;9.95;;
49378;SDS011;35254;47.990;-1.608;2023-07-02T06:00:36;20.50;;;10.80;;
49378;SDS011;35254;47.990;-1.608;2023-07-02T06:03:01;18.95;;;10.98;;
49378;SDS011;35254;47.990;-1.608;2023-07-02T06:05:27;22.17;;;10.00;;
49378;SDS011;35254;47.990;-1.608;2023-07-02T06:07:53;17.67;;;11.32;;
49378;SDS011;35254;47.990;-1.608;2023-07-02T06:10:19;19.52;;;10.05;;
49378;SDS011;35254;47.990;-1.608;2023-07-02T06:12:44;17.70;;;9.90;;
49378;SDS011;35254;47.990;-1.608;2023-07-02T06:15:10;16.05;;;10.20;;
49378;SDS011;35254;47.990;-1.608;2023-07-02T06:17:36;17.50;;;10.65;;
49378;SDS011;35254;47.990;-1.608;2023-07-02T06:20:02;16.42;;;10.38;;
49378;SDS011;35254;47.990;-1.608;2023-07-02T06:22:31;16.30;;;10.60;;
49378;SDS011;35254;47.990;-1.608;2023-07-02T06:24:56;17.02;;;10.82;;
49378;SDS011;35254;47.990;-1.608;2023-07-02T06:27:22;16.52;;;10.23;;
49378;SDS011;35254;47.990;-1.608;2023-07-02T06:29:48;17.92;;;10.32;;
49378;SDS011;35254;47.990;-1.608;2023-07-02T06:32:15;17.15;;;10.68;;
49378;SDS011;35254;47.990;-1.608;2023-07-02T06:34:41;21.80;;;10.25;;
49378;SDS011;35254;47.990;-1.608;2023-07-02T06:37:06;16.02;;;10.25;;
49378;SDS011;35254;47.990;-1.608;2023-07-02T06:39:32;18.15;;;11.90;;
49378;SDS011;35254;47.990;-1.608;2023-07-02T06:41:58;17.40;;;10.15;;
49378;SDS011;35254;47.990;-1.608;2023-07-02T06:44:23;18.15;;;9.48;;
49378;SDS011;35254;47.990;-1.608;2023-07-02T06:46:49;16.73;;;9.63;;
49378;SDS011;35254;47.990;-1.608;2023-07-02T06:49:14;15.25;;;9.73;;
49378;SDS011;35254;47.990;-1.608;2023-07-02T06:51:40;17.88;;;10.98;;
49378;SDS011;35254;47.990;-1.608;2023-07-02T06:54:06;15.50;;;10.32;;
49378;SDS011;35254;47.990;-1.608;2023-07-02T06:56:32;19.65;;;10.85;;
49378;SDS011;35254;47.990;-1.608;2023-07-02T06:58:59;15.68;;;10.85;;
49378;SDS011;35254;47.990;-1.608;2023-07-02T07:01:26;14.10;;;10.18;;
49378;SDS011;35254;47.990;-1.608;2023-07-02T07:03:51;15.45;;;9.55;;
49378;SDS011;35254;47.990;-1.608;2023-07-02T07:06:17;19.45;;;10.32;;
49378;SDS011;35254;47.990;-1.608;2023-07-02T07:08:43;17.63;;;10.45;;
49378;SDS011;35254;47.990;-1.608;2023-07-02T07:11:08;17.25;;;9.90;;
49378;SDS011;35254;47.990;-1.608;2023-07-02T07:13:34;15.40;;;10.43;;
49378;SDS011;35254;47.990;-1.608;2023-07-02T07:15:59;16.67;;;10.55;;
49378;SDS011;35254;47.990;-1.608;2023-07-02T07:18:25;17.33;;;10.40;;
49378;SDS011;35254;47.990;-1.608;2023-07-02T07:20:51;20.70;;;10.57;;
49378;SDS011;35254;47.990;-1.608;2023-07-02T07:23:17;19.25;;;9.90;;
49378;SDS011;35254;47.990;-1.608;2023-07-02T07:25:43;16.23;;;8.77;;
49378;SDS011;35254;47.990;-1.608;2023-07-02T07:28:10;14.75;;;9.15;;
49378;SDS011;35254;47.990;-1.608;2023-07-02T07:30:42;16.90;;;10.40;;
49378;SDS011;35254;47.990;-1.608;2023-07-02T07:33:08;21.55;;;10.77;;
49378;SDS011;35254;47.990;-1.608;2023-07-02T07:35:33;19.00;;;10.00;;
49378;SDS011;35254;47.990;-1.608;2023-07-02T07:37:59;24.15;;;10.75;;
49378;SDS011;35254;47.990;-1.608;2023-07-02T07:40:24;15.60;;;9.65;;
49378;SDS011;35254;47.990;-1.608;2023-07-02T07:42:50;20.08;;;9.45;;
49378;SDS011;35254;47.990;-1.608;2023-07-02T07:45:15;20.42;;;10.02;;
49378;SDS011;35254;47.990;-1.608;2023-07-02T07:47:41;18.40;;;9.95;;
49378;SDS011;35254;47.990;-1.608;2023-07-02T07:50:07;19.05;;;9.13;;
49378;SDS011;35254;47.990;-1.608;2023-07-02T07:52:36;15.98;;;8.93;;
49378;SDS011;35254;47.990;-1.608;2023-07-02T07:55:06;32.33;;;11.18;;
49378;SDS011;35254;47.990;-1.608;2023-07-02T07:59:59;21.50;;;10.20;;
49378;SDS011;35254;47.990;-1.608;2023-07-02T08:02:24;16.02;;;9.02;;
49378;SDS011;35254;47.990;-1.608;2023-07-02T08:04:50;20.42;;;10.25;;
49378;SDS011;35254;47.990;-1.608;2023-07-02T08:07:16;17.88;;;9.88;;
49378;SDS011;35254;47.990;-1.608;2023-07-02T08:09:41;24.25;;;9.93;;
49378;SDS011;35254;47.990;-1.608;2023-07-02T08:12:07;17.45;;;9.07;;
49378;SDS011;35254;47.990;-1.608;2023-07-02T08:14:33;17.33;;;9.15;;
49378;SDS011;35254;47.990;-1.608;2023-07-02T08:17:00;17.98;;;9.63;;
49378;SDS011;35254;47.990;-1.608;2023-07-02T08:19:26;20.88;;;10.15;;
49378;SDS011;35254;47.990;-1.608;2023-07-02T08:21:51;18.17;;;8.88;;
49378;SDS011;35254;47.990;-1.608;2023-07-02T08:24:17;17.50;;;8.88;;
49378;SDS011;35254;47.990;-1.608;2023-07-02T08:26:43;18.75;;;9.50;;
49378;SDS011;35254;47.990;-1.608;2023-07-02T08:29:09;19.55;;;9.57;;
49378;SDS011;35254;47.990;-1.608;2023-07-02T08:31:35;25.58;;;10.23;;
49378;SDS011;35254;47.990;-1.608;2023-07-02T08:34:01;21.67;;;10.50;;
49378;SDS011;35254;47.990;-1.608;2023-07-02T08:36:27;22.05;;;9.60;;
49378;SDS011;35254;47.990;-1.608;2023-07-02T08:38:53;21.15;;;9.65;;
49378;SDS011;35254;47.990;-1.608;2023-07-02T08:41:20;18.30;;;9.80;;
49378;SDS011;35254;47.990;-1.608;2023-07-02T08:43:45;12.52;;;8.13;;
49378;SDS011;35254;47.990;-1.608;2023-07-02T08:46:14;21.05;;;8.73;;
49378;SDS011;35254;47.990;-1.608;2023-07-02T08:48:41;19.67;;;10.15;;
49378;SDS011;35254;47.990;-1.608;2023-07-02T08:51:07;19.20;;;8.85;;
49378;SDS011;35254;47.990;-1.608;2023-07-02T08:53:32;16.33;;;7.75;;
49378;SDS011;35254;47.990;-1.608;2023-07-02T08:56:02;15.55;;;9.20;;
49378;SDS011;35254;47.990;-1.608;2023-07-02T08:58:28;17.30;;;9.52;;
49378;SDS011;35254;47.990;-1.608;2023-07-02T09:01:10;15.73;;;8.05;;
49378;SDS011;35254;47.990;-1.608;2023-07-02T09:03:37;21.65;;;8.48;;
49378;SDS011;35254;47.990;-1.608;2023-07-02T09:06:04;17.67;;;8.93;;
49378;SDS011;35254;47.990;-1.608;2023-07-02T09:08:31;20.00;;;8.57;;
49378;SDS011;35254;47.990;-1.608;2023-07-02T09:11:12;13.27;;;7.30;;
49378;SDS011;35254;47.990;-1.608;2023-07-02T09:16:26;18.35;;;8.55;;
49378;SDS011;35254;47.990;-1.608;2023-07-02T09:18:57;15.27;;;8.05;;
49378;SDS011;35254;47.990;-1.608;2023-07-02T09:24:18;16.38;;;8.07;;
49378;SDS011;35254;47.990;-1.608;2023-07-02T09:26:49;14.95;;;8.00;;
49378;SDS011;35254;47.990;-1.608;2023-07-02T09:31:58;18.38;;;7.30;;
49378;SDS011;35254;47.990;-1.608;2023-07-02T09:34:28;21.23;;;9.20;;
49378;SDS011;35254;47.990;-1.608;2023-07-02T09:36:56;18.05;;;8.88;;
49378;SDS011;35254;47.990;-1.608;2023-07-02T09:39:26;16.85;;;8.23;;
49378;SDS011;35254;47.990;-1.608;2023-07-02T09:41:54;21.60;;;8.65;;
49378;SDS011;35254;47.990;-1.608;2023-07-02T09:44:27;14.18;;;7.60;;
49378;SDS011;35254;47.990;-1.608;2023-07-02T09:46:58;14.50;;;7.85;;
49378;SDS011;35254;47.990;-1.608;2023-07-02T09:49:33;18.42;;;7.88;;
49378;SDS011;35254;47.990;-1.608;2023-07-02T09:54:33;18.02;;;8.40;;
49378;SDS011;35254;47.990;-1.608;2023-07-02T09:56:59;20.13;;;9.18;;
49378;SDS011;35254;47.990;-1.608;2023-07-02T09:59:25;15.30;;;8.32;;
49378;SDS011;35254;47.990;-1.608;2023-07-02T10:01:51;15.55;;;7.55;;
49378;SDS011;35254;47.990;-1.608;2023-07-02T10:04:18;14.98;;;8.23;;
49378;SDS011;35254;47.990;-1.608;2023-07-02T10:09:11;20.00;;;9.05;;
49378;SDS011;35254;47.990;-1.608;2023-07-02T10:11:37;17.83;;;8.20;;
49378;SDS011;35254;47.990;-1.608;2023-07-02T10:14:02;15.45;;;7.07;;
49378;SDS011;35254;47.990;-1.608;2023-07-02T10:16:28;20.45;;;8.38;;
49378;SDS011;35254;47.990;-1.608;2023-07-02T10:19:07;16.95;;;7.88;;
49378;SDS011;35254;47.990;-1.608;2023-07-02T10:21:37;17.92;;;8.30;;
49378;SDS011;35254;47.990;-1.608;2023-07-02T10:24:13;13.88;;;7.60;;
49378;SDS011;35254;47.990;-1.608;2023-07-02T10:26:51;14.98;;;8.05;;
49378;SDS011;35254;47.990;-1.608;2023-07-02T10:29:22;15.05;;;8.00;;
49378;SDS011;35254;47.990;-1.608;2023-07-02T10:31:50;19.15;;;9.10;;
49378;SDS011;35254;47.990;-1.608;2023-07-02T10:34:16;17.05;;;8.30;;
49378;SDS011;35254;47.990;-1.608;2023-07-02T10:36:56;23.42;;;8.07;;
49378;SDS011;35254;47.990;-1.608;2023-07-02T10:39:22;19.52;;;8.65;;
49378;SDS011;35254;47.990;-1.608;2023-07-02T10:41:48;17.85;;;7.60;;
49378;SDS011;35254;47.990;-1.608;2023-07-02T10:44:14;20.80;;;8.02;;
49378;SDS011;35254;47.990;-1.608;2023-07-02T10:46:44;14.77;;;7.65;;
49378;SDS011;35254;47.990;-1.608;2023-07-02T10:49:10;14.73;;;7.55;;
49378;SDS011;35254;47.990;-1.608;2023-07-02T10:51:37;14.65;;;7.55;;
49378;SDS011;35254;47.990;-1.608;2023-07-02T10:54:03;16.00;;;6.95;;
49378;SDS011;35254;47.990;-1.608;2023-07-02T10:56:30;16.35;;;7.90;;
49378;SDS011;35254;47.990;-1.608;2023-07-02T10:58:57;18.52;;;7.95;;
49378;SDS011;35254;47.990;-1.608;2023-07-02T11:03:55;18.75;;;7.70;;
49378;SDS011;35254;47.990;-1.608;2023-07-02T11:06:29;18.33;;;8.15;;
49378;SDS011;35254;47.990;-1.608;2023-07-02T11:08:57;11.68;;;7.28;;
49378;SDS011;35254;47.990;-1.608;2023-07-02T11:11:23;19.58;;;8.32;;
49378;SDS011;35254;47.990;-1.608;2023-07-02T11:13:50;16.10;;;7.82;;
49378;SDS011;35254;47.990;-1.608;2023-07-02T11:16:23;21.92;;;7.68;;
49378;SDS011;35254;47.990;-1.608;2023-07-02T11:19:09;14.88;;;7.40;;
49378;SDS011;35254;47.990;-1.608;2023-07-02T11:21:35;17.27;;;7.43;;
49378;SDS011;35254;47.990;-1.608;2023-07-02T11:24:05;14.48;;;7.57;;
49378;SDS011;35254;47.990;-1.608;2023-07-02T11:26:36;12.25;;;7.35;;
49378;SDS011;35254;47.990;-1.608;2023-07-02T11:29:02;20.33;;;7.78;;
49378;SDS011;35254;47.990;-1.608;2023-07-02T11:31:28;16.20;;;7.70;;
49378;SDS011;35254;47.990;-1.608;2023-07-02T11:33:54;13.57;;;7.65;;
49378;SDS011;35254;47.990;-1.608;2023-07-02T11:36:20;12.18;;;7.25;;
49378;SDS011;35254;47.990;-1.608;2023-07-02T11:38:48;16.88;;;7.75;;
49378;SDS011;35254;47.990;-1.608;2023-07-02T11:41:15;18.00;;;8.60;;
49378;SDS011;35254;47.990;-1.608;2023-07-02T11:43:41;15.20;;;6.78;;
49378;SDS011;35254;47.990;-1.608;2023-07-02T11:46:07;15.75;;;7.75;;
49378;SDS011;35254;47.990;-1.608;2023-07-02T11:48:32;13.35;;;7.35;;
49378;SDS011;35254;47.990;-1.608;2023-07-02T11:50:58;15.43;;;7.28;;
49378;SDS011;35254;47.990;-1.608;2023-07-02T11:53:24;13.35;;;6.82;;
49378;SDS011;35254;47.990;-1.608;2023-07-02T11:55:50;12.35;;;7.50;;
49378;SDS011;35254;47.990;-1.608;2023-07-02T11:58:15;13.93;;;7.47;;
49378;SDS011;35254;47.990;-1.608;2023-07-02T12:00:41;12.27;;;7.10;;
49378;SDS011;35254;47.990;-1.608;2023-07-02T12:03:06;14.45;;;7.32;;
49378;SDS011;35254;47.990;-1.608;2023-07-02T12:05:32;13.30;;;7.13;;
49378;SDS011;35254;47.990;-1.608;2023-07-02T12:07:58;12.88;;;7.10;;
49378;SDS011;35254;47.990;-1.608;2023-07-02T12:10:23;13.48;;;8.20;;
49378;SDS011;35254;47.990;-1.608;2023-07-02T12:12:49;11.25;;;6.57;;
49378;SDS011;35254;47.990;-1.608;2023-07-02T12:15:15;14.15;;;7.38;;
49378;SDS011;35254;47.990;-1.608;2023-07-02T12:17:40;14.32;;;7.05;;
49378;SDS011;35254;47.990;-1.608;2023-07-02T12:20:06;11.95;;;7.13;;
49378;SDS011;35254;47.990;-1.608;2023-07-02T12:22:32;13.40;;;6.57;;
49378;SDS011;35254;47.990;-1.608;2023-07-02T12:24:58;18.05;;;7.45;;
49378;SDS011;35254;47.990;-1.608;2023-07-02T12:27:23;10.65;;;5.97;;
49378;SDS011;35254;47.990;-1.608;2023-07-02T12:29:50;14.32;;;7.55;;
49378;SDS011;35254;47.990;-1.608;2023-07-02T12:32:16;10.18;;;6.15;;
49378;SDS011;35254;47.990;-1.608;2023-07-02T12:34:41;10.45;;;6.15;;
49378;SDS011;35254;47.990;-1.608;2023-07-02T12:37:07;11.65;;;5.50;;
49378;SDS011;35254;47.990;-1.608;2023-07-02T12:39:32;15.95;;;7.55;;
49378;SDS011;35254;47.990;-1.608;2023-07-02T12:41:58;13.77;;;6.55;;
49378;SDS011;35254;47.990;-1.608;2023-07-02T12:44:24;12.02;;;6.38;;
49378;SDS011;35254;47.990;-1.608;2023-07-02T12:46:50;11.07;;;5.60;;
49378;SDS011;35254;47.990;-1.608;2023-07-02T12:49:16;9.70;;;5.82;;
49378;SDS011;35254;47.990;-1.608;2023-07-02T12:51:41;11.13;;;6.57;;
49378;SDS011;35254;47.990;-1.608;2023-07-02T12:54:07;13.57;;;6.63;;
49378;SDS011;35254;47.990;-1.608;2023-07-02T12:56:33;11.00;;;6.65;;
49378;SDS011;35254;47.990;-1.608;2023-07-02T12:58:58;14.02;;;6.95;;
49378;SDS011;35254;47.990;-1.608;2023-07-02T13:01:24;12.02;;;6.50;;
49378;SDS011;35254;47.990;-1.608;2023-07-02T13:03:49;10.88;;;5.82;;
49378;SDS011;35254;47.990;-1.608;2023-07-02T13:06:15;10.90;;;6.40;;
49378;SDS011;35254;47.990;-1.608;2023-07-02T13:08:41;13.45;;;6.22;;
49378;SDS011;35254;47.990;-1.608;2023-07-02T13:11:07;12.02;;;6.55;;
49378;SDS011;35254;47.990;-1.608;2023-07-02T13:13:32;10.80;;;6.10;;
49378;SDS011;35254;47.990;-1.608;2023-07-02T13:16:01;13.32;;;6.10;;
49378;SDS011;35254;47.990;-1.608;2023-07-02T13:18:26;13.15;;;6.00;;
49378;SDS011;35254;47.990;-1.608;2023-07-02T13:20:52;10.13;;;6.03;;
49378;SDS011;35254;47.990;-1.608;2023-07-02T13:23:18;12.82;;;5.93;;
49378;SDS011;35254;47.990;-1.608;2023-07-02T13:25:44;14.70;;;6.57;;
49378;SDS011;35254;47.990;-1.608;2023-07-02T13:28:09;11.35;;;6.30;;
49378;SDS011;35254;47.990;-1.608;2023-07-02T13:30:35;11.27;;;5.93;;
49378;SDS011;35254;47.990;-1.608;2023-07-02T13:33:01;8.02;;;5.43;;
49378;SDS011;35254;47.990;-1.608;2023-07-02T13:35:26;10.50;;;6.18;;
49378;SDS011;35254;47.990;-1.608;2023-07-02T13:37:52;8.57;;;6.05;;
49378;SDS011;35254;47.990;-1.608;2023-07-02T13:40:18;10.85;;;6.53;;
49378;SDS011;35254;47.990;-1.608;2023-07-02T13:42:43;14.07;;;6.80;;
49378;SDS011;35254;47.990;-1.608;2023-07-02T13:45:09;12.60;;;6.15;;
49378;SDS011;35254;47.990;-1.608;2023-07-02T13:47:35;12.68;;;6.18;;
49378;SDS011;35254;47.990;-1.608;2023-07-02T13:50:02;10.77;;;5.53;;
49378;SDS011;35254;47.990;-1.608;2023-07-02T13:52:28;11.80;;;6.00;;
49378;SDS011;35254;47.990;-1.608;2023-07-02T13:54:54;9.90;;;5.38;;
49378;SDS011;35254;47.990;-1.608;2023-07-02T13:57:20;12.75;;;7.45;;
49378;SDS011;35254;47.990;-1.608;2023-07-02T13:59:46;9.93;;;6.10;;
49378;SDS011;35254;47.990;-1.608;2023-07-02T14:02:12;13.48;;;6.60;;
49378;SDS011;35254;47.990;-1.608;2023-07-02T14:04:38;10.10;;;6.03;;
49378;SDS011;35254;47.990;-1.608;2023-07-02T14:07:04;12.82;;;6.85;;
49378;SDS011;35254;47.990;-1.608;2023-07-02T14:09:30;11.73;;;5.82;;
49378;SDS011;35254;47.990;-1.608;2023-07-02T14:11:55;9.55;;;5.18;;
49378;SDS011;35254;47.990;-1.608;2023-07-02T14:14:21;11.95;;;6.45;;
49378;SDS011;35254;47.990;-1.608;2023-07-02T14:16:47;9.50;;;6.07;;
49378;SDS011;35254;47.990;-1.608;2023-07-02T14:19:12;10.45;;;6.43;;
49378;SDS011;35254;47.990;-1.608;2023-07-02T14:21:38;9.65;;;6.25;;
49378;SDS011;35254;47.990;-1.608;2023-07-02T14:24:04;9.27;;;5.47;;
49378;SDS011;35254;47.990;-1.608;2023-07-02T14:26:30;13.02;;;6.63;;
49378;SDS011;35254;47.990;-1.608;2023-07-02T14:28:57;11.05;;;6.07;;
49378;SDS011;35254;47.990;-1.608;2023-07-02T14:31:23;10.63;;;5.55;;
49378;SDS011;35254;47.990;-1.608;2023-07-02T14:33:49;13.65;;;5.90;;